Time;durP1;ratioP1;P1;durP2;ratioP2;P2;SDS_P1;SDS_P2;PMS_P1;PMS_P2;Temp;Humidity;BMP_temperature;BMP_pressure;BME280_temperature;BME280_humidity;BME280_pressure;Samples;Min_cycle;Max_cycle;Signal;HPM_P1;HPM_P2
2023/04/15 00:00:29;;;;;;;0.00;0.00;;;8.40;74.40;;;;;;4955827;28;20115;-67
2023/04/15 00:02:54;;;;;;;0.00;0.00;;;8.40;74.70;;;;;;4973687;28;20554;-67
2023/04/15 00:05:20;;;;;;;0.00;0.00;;;8.40;74.70;;;;;;4973888;28;20043;-66
2023/04/15 00:07:46;;;;;;;0.00;0.00;;;8.40;74.20;;;;;;4963273;28;20078;-67
2023/04/15 00:10:13;;;;;;;0.10;0.10;;;8.30;74.90;;;;;;4964163;28;20034;-67
2023/04/15 00:12:39;;;;;;;0.00;0.00;;;8.40;75.00;;;;;;4973197;28;20455;-67
2023/04/15 00:15:07;;;;;;;1.17;1.08;;;8.40;75.10;;;;;;4973719;28;20098;-67
2023/04/15 00:17:33;;;;;;;0.10;0.10;;;8.30;75.00;;;;;;4955068;28;20050;-67
2023/04/15 00:19:58;;;;;;;0.00;0.00;;;8.30;75.00;;;;;;4966216;28;20427;-67
2023/04/15 00:22:25;;;;;;;0.10;0.10;;;8.20;74.60;;;;;;4956349;28;20098;-67
2023/04/15 00:24:52;;;;;;;0.00;0.00;;;8.20;74.80;;;;;;4972181;28;20043;-66
2023/04/15 00:27:18;;;;;;;0.00;0.00;;;8.20;75.60;;;;;;4971778;28;20420;-67
2023/04/15 00:29:43;;;;;;;0.00;0.00;;;8.20;75.70;;;;;;4954760;28;20534;-67
2023/04/15 00:32:09;;;;;;;0.00;0.00;;;8.10;75.60;;;;;;4968482;28;20048;-67
2023/04/15 00:34:35;;;;;;;0.15;0.15;;;8.10;75.70;;;;;;4944719;28;20043;-66
2023/04/15 00:37:01;;;;;;;0.10;0.10;;;8.10;75.80;;;;;;4961046;28;20051;-67
2023/04/15 00:39:27;;;;;;;0.00;0.00;;;8.10;75.20;;;;;;4953760;28;20046;-67
2023/04/15 00:41:54;;;;;;;0.00;0.00;;;8.10;76.00;;;;;;4963558;28;20422;-67
2023/04/15 00:44:20;;;;;;;0.00;0.00;;;8.00;76.10;;;;;;4972692;28;20042;-67
2023/04/15 00:46:46;;;;;;;0.00;0.00;;;8.00;75.80;;;;;;4963921;28;20578;-67
2023/04/15 00:49:12;;;;;;;0.10;0.10;;;8.00;76.20;;;;;;4954986;28;20047;-67
2023/04/15 00:51:37;;;;;;;0.00;0.00;;;7.90;76.60;;;;;;4959488;28;20101;-67
2023/04/15 00:54:03;;;;;;;0.00;0.00;;;7.90;77.00;;;;;;4973044;28;20138;-66
2023/04/15 00:56:29;;;;;;;0.00;0.00;;;7.90;77.20;;;;;;4962154;28;20047;-67
2023/04/15 00:58:57;;;;;;;0.00;0.00;;;7.90;76.70;;;;;;4957808;28;20077;-66
2023/04/15 01:01:24;;;;;;;0.00;0.00;;;7.90;76.70;;;;;;4968845;28;20464;-67
2023/04/15 01:03:50;;;;;;;1.08;0.70;;;7.80;77.20;;;;;;4953313;28;20051;-67
2023/04/15 01:06:17;;;;;;;0.32;0.32;;;7.70;77.10;;;;;;4958339;28;20054;-67
2023/04/15 01:08:44;;;;;;;0.00;0.00;;;7.70;76.90;;;;;;4971140;28;20145;-67
2023/04/15 01:11:12;;;;;;;0.00;0.00;;;7.70;76.70;;;;;;4971453;28;20448;-66
2023/04/15 01:13:37;;;;;;;0.00;0.00;;;7.70;77.00;;;;;;4965676;28;20069;-67
2023/04/15 01:16:03;;;;;;;0.00;0.00;;;7.70;77.00;;;;;;4968681;28;20042;-67
2023/04/15 01:18:30;;;;;;;0.05;0.05;;;7.70;76.90;;;;;;4954860;28;20039;-67
2023/04/15 01:20:56;;;;;;;0.00;0.00;;;7.60;76.60;;;;;;4953163;28;20039;-67
2023/04/15 01:23:22;;;;;;;0.10;0.10;;;7.60;77.00;;;;;;4968407;28;20050;-66
2023/04/15 01:25:48;;;;;;;0.00;0.00;;;7.60;77.30;;;;;;4962436;28;20146;-67
2023/04/15 01:28:14;;;;;;;0.00;0.00;;;7.50;77.20;;;;;;4944159;28;20126;-67
2023/04/15 01:30:40;;;;;;;0.17;0.17;;;7.60;76.80;;;;;;4966723;28;20047;-67
2023/04/15 01:33:06;;;;;;;0.00;0.00;;;7.50;77.70;;;;;;4955063;28;20547;-67
2023/04/15 01:35:32;;;;;;;0.00;0.00;;;7.40;77.70;;;;;;4952936;28;20463;-67
2023/04/15 01:38:05;;;;;;;0.00;0.00;;;7.40;78.00;;;;;;4935852;28;20043;-67
2023/04/15 01:40:31;;;;;;;0.05;0.05;;;7.40;78.00;;;;;;4957108;28;20047;-67
2023/04/15 01:42:56;;;;;;;0.00;0.00;;;7.30;77.90;;;;;;4953277;28;20129;-67
2023/04/15 01:45:22;;;;;;;0.20;0.20;;;7.30;78.50;;;;;;4952959;28;20043;-67
2023/04/15 01:47:48;;;;;;;0.00;0.00;;;7.20;78.30;;;;;;4954673;28;20090;-67
2023/04/15 01:50:14;;;;;;;0.00;0.00;;;7.20;79.00;;;;;;4971830;28;20058;-66
2023/04/15 01:52:40;;;;;;;0.30;0.30;;;7.10;78.60;;;;;;4966339;28;20110;-67
2023/04/15 01:55:07;;;;;;;0.10;0.10;;;7.10;78.90;;;;;;4952743;28;20053;-67
2023/04/15 01:57:33;;;;;;;0.00;0.00;;;7.10;78.90;;;;;;4957866;28;20078;-67
2023/04/15 01:59:58;;;;;;;0.00;0.00;;;7.10;78.80;;;;;;4969097;28;20473;-67
2023/04/15 02:02:24;;;;;;;0.00;0.00;;;7.10;79.70;;;;;;4969715;28;20492;-67
2023/04/15 02:04:50;;;;;;;0.00;0.00;;;7.00;79.20;;;;;;4957095;28;20057;-67
2023/04/15 02:07:16;;;;;;;0.00;0.00;;;7.00;79.60;;;;;;4952617;28;20047;-67
2023/04/15 02:09:42;;;;;;;0.05;0.05;;;7.00;79.50;;;;;;4947554;29;20058;-67
2023/04/15 02:12:08;;;;;;;0.10;0.10;;;7.00;79.70;;;;;;4935469;28;20051;-67
2023/04/15 02:14:34;;;;;;;0.00;0.00;;;6.90;80.40;;;;;;4952944;28;20039;-67
2023/04/15 02:17:06;;;;;;;0.00;0.00;;;6.90;80.20;;;;;;4956249;28;20038;-67
2023/04/15 02:19:32;;;;;;;0.00;0.00;;;6.90;80.20;;;;;;4969600;28;20058;-67
2023/04/15 02:21:59;;;;;;;0.00;0.00;;;6.90;81.00;;;;;;4964057;28;20044;-67
2023/04/15 02:24:25;;;;;;;0.00;0.00;;;6.90;81.20;;;;;;4969468;28;20082;-67
2023/04/15 02:26:50;;;;;;;0.00;0.00;;;6.90;80.90;;;;;;4970139;28;20053;-67
2023/04/15 02:29:16;;;;;;;0.00;0.00;;;6.90;81.00;;;;;;4955555;28;20047;-67
2023/04/15 02:31:42;;;;;;;3.17;1.85;;;6.90;81.00;;;;;;4953279;28;20146;-66
2023/04/15 02:34:08;;;;;;;0.00;0.00;;;7.00;81.00;;;;;;4962184;28;20474;-67
2023/04/15 02:36:34;;;;;;;0.00;0.00;;;7.00;80.80;;;;;;4954019;28;20142;-66
2023/04/15 02:38:59;;;;;;;0.00;0.00;;;7.00;80.80;;;;;;4958422;28;20094;-67
2023/04/15 02:41:27;;;;;;;0.00;0.00;;;7.00;80.00;;;;;;4952696;28;20050;-67
2023/04/15 02:43:53;;;;;;;0.00;0.00;;;7.00;79.60;;;;;;4962593;28;20046;-67
2023/04/15 02:46:18;;;;;;;0.00;0.00;;;7.00;80.00;;;;;;4970079;28;20046;-67
2023/04/15 02:48:44;;;;;;;0.08;0.08;;;7.00;79.80;;;;;;4970012;28;20051;-66
2023/04/15 02:51:21;;;;;;;0.00;0.00;;;7.00;80.30;;;;;;4943033;28;20043;-66
2023/04/15 02:53:47;;;;;;;0.00;0.00;;;6.90;81.60;;;;;;4951473;28;20348;-67
2023/04/15 02:56:14;;;;;;;2.10;1.05;;;6.90;82.10;;;;;;4966433;28;20101;-66
2023/04/15 02:58:41;;;;;;;0.03;0.03;;;6.90;81.60;;;;;;4944302;29;20194;-67
2023/04/15 03:01:07;;;;;;;0.00;0.00;;;6.90;82.00;;;;;;4958395;28;20509;-67
2023/04/15 03:03:33;;;;;;;2.30;1.00;;;6.80;81.90;;;;;;4963107;28;20106;-67
2023/04/15 03:05:59;;;;;;;0.00;0.00;;;6.90;81.70;;;;;;4962066;28;20047;-67
2023/04/15 03:08:25;;;;;;;0.00;0.00;;;6.90;81.20;;;;;;4965389;28;20074;-67
2023/04/15 03:10:51;;;;;;;0.10;0.10;;;6.80;81.50;;;;;;4953835;28;20508;-66
2023/04/15 03:13:17;;;;;;;0.00;0.00;;;6.80;81.00;;;;;;4956445;28;20041;-67
2023/04/15 03:15:45;;;;;;;0.03;0.03;;;6.80;81.40;;;;;;4950951;28;20054;-67
2023/04/15 03:18:11;;;;;;;0.00;0.00;;;6.80;81.50;;;;;;4951676;28;20071;-66
2023/04/15 03:20:36;;;;;;;0.00;0.00;;;6.80;82.10;;;;;;4951320;28;20051;-67
2023/04/15 03:23:02;;;;;;;2.25;0.90;;;6.80;81.30;;;;;;4952125;28;20035;-67
2023/04/15 03:25:27;;;;;;;0.10;0.10;;;6.80;81.20;;;;;;4957192;28;20054;-66
2023/04/15 03:27:53;;;;;;;0.00;0.00;;;6.80;81.50;;;;;;4959245;28;20039;-67
2023/04/15 03:30:18;;;;;;;0.00;0.00;;;6.80;81.40;;;;;;4951295;28;20617;-67
2023/04/15 03:32:44;;;;;;;0.00;0.00;;;6.80;81.30;;;;;;4951238;28;20047;-67
2023/04/15 03:35:09;;;;;;;0.00;0.00;;;6.80;81.50;;;;;;4966719;28;20492;-67
2023/04/15 03:37:35;;;;;;;0.00;0.00;;;6.80;81.50;;;;;;4952298;28;20054;-67
2023/04/15 03:40:01;;;;;;;0.20;0.20;;;6.70;81.90;;;;;;4959128;28;20051;-67
2023/04/15 03:42:26;;;;;;;0.00;0.00;;;6.70;81.20;;;;;;4951241;28;20058;-67
2023/04/15 03:44:52;;;;;;;0.00;0.00;;;6.70;82.10;;;;;;4951010;28;20078;-67
2023/04/15 03:47:17;;;;;;;0.00;0.00;;;6.60;81.90;;;;;;4952330;28;20042;-67
2023/04/15 03:49:43;;;;;;;0.00;0.00;;;6.60;81.70;;;;;;4959870;28;20071;-67
2023/04/15 03:52:09;;;;;;;0.10;0.10;;;6.60;81.90;;;;;;4951878;28;20500;-67
2023/04/15 03:54:34;;;;;;;0.20;0.20;;;6.60;81.30;;;;;;4957885;28;20187;-67
2023/04/15 03:57:00;;;;;;;0.00;0.00;;;6.50;81.70;;;;;;4968242;28;20412;-67
2023/04/15 03:59:25;;;;;;;0.00;0.00;;;6.50;81.60;;;;;;4969195;28;20445;-66
2023/04/15 04:01:51;;;;;;;0.00;0.00;;;6.50;82.80;;;;;;4956547;28;20047;-66
2023/04/15 04:04:16;;;;;;;0.10;0.10;;;6.40;82.40;;;;;;4921439;28;20039;-67
2023/04/15 04:06:42;;;;;;;0.00;0.00;;;6.40;82.60;;;;;;4969959;28;20102;-66
2023/04/15 04:09:08;;;;;;;0.00;0.00;;;6.40;82.90;;;;;;4952191;28;20660;-66
2023/04/15 04:11:33;;;;;;;0.00;0.00;;;6.40;83.40;;;;;;4964393;28;20062;-67
2023/04/15 04:13:59;;;;;;;0.10;0.10;;;6.40;83.40;;;;;;4951110;28;20054;-67
2023/04/15 04:16:24;;;;;;;0.00;0.00;;;6.40;83.40;;;;;;4950960;28;20079;-67
2023/04/15 04:18:50;;;;;;;0.00;0.00;;;6.30;84.10;;;;;;4950836;28;20086;-67
2023/04/15 04:21:16;;;;;;;3.92;0.85;;;6.40;84.10;;;;;;4967931;28;20439;-67
2023/04/15 04:23:41;;;;;;;0.10;0.10;;;6.30;84.00;;;;;;4946968;29;20436;-67
2023/04/15 04:26:07;;;;;;;0.00;0.00;;;6.30;83.40;;;;;;4964756;28;20046;-67
2023/04/15 04:28:34;;;;;;;0.00;0.00;;;6.30;83.00;;;;;;4952719;28;20053;-67
2023/04/15 04:30:59;;;;;;;0.10;0.10;;;6.30;83.10;;;;;;4953606;28;20062;-67
2023/04/15 04:33:25;;;;;;;0.10;0.10;;;6.30;83.50;;;;;;4937870;29;20048;-66
2023/04/15 04:35:50;;;;;;;0.00;0.00;;;6.30;83.70;;;;;;4951447;28;20043;-66
2023/04/15 04:38:16;;;;;;;0.10;0.10;;;6.30;84.50;;;;;;4950984;28;20142;-67
2023/04/15 04:40:42;;;;;;;0.00;0.00;;;6.30;84.20;;;;;;4961771;28;20053;-66
2023/04/15 04:43:08;;;;;;;0.00;0.00;;;6.20;83.80;;;;;;4964707;28;20172;-66
2023/04/15 04:45:33;;;;;;;0.10;0.10;;;6.20;83.40;;;;;;4962143;28;20072;-66
2023/04/15 04:47:59;;;;;;;0.00;0.00;;;6.20;83.50;;;;;;4947753;28;20488;-67
2023/04/15 04:50:25;;;;;;;0.05;0.05;;;6.20;84.20;;;;;;4964125;28;20046;-66
2023/04/15 04:52:50;;;;;;;0.38;0.38;;;6.20;84.40;;;;;;4965276;28;20049;-66
2023/04/15 04:55:16;;;;;;;0.00;0.00;;;6.20;84.70;;;;;;4971557;28;20113;-66
2023/04/15 04:57:41;;;;;;;0.05;0.05;;;6.20;84.30;;;;;;4972857;28;20046;-66
2023/04/15 05:00:07;;;;;;;0.20;0.20;;;6.20;84.60;;;;;;4971071;28;20120;-67
2023/04/15 05:02:34;;;;;;;0.00;0.00;;;6.20;83.80;;;;;;4970172;28;20500;-66
2023/04/15 05:04:59;;;;;;;1.13;1.13;;;6.20;83.70;;;;;;4957318;28;20534;-67
2023/04/15 05:07:25;;;;;;;0.00;0.00;;;6.20;83.40;;;;;;4969200;28;20048;-66
2023/04/15 05:09:51;;;;;;;0.00;0.00;;;6.20;83.00;;;;;;4956998;28;20039;-67
2023/04/15 05:12:17;;;;;;;0.00;0.00;;;6.20;83.10;;;;;;4960162;28;20061;-67
2023/04/15 05:14:43;;;;;;;0.10;0.10;;;6.30;82.90;;;;;;4962789;28;20054;-67
2023/04/15 05:17:08;;;;;;;0.00;0.00;;;6.30;83.30;;;;;;4961940;28;20043;-66
2023/04/15 05:19:34;;;;;;;0.00;0.00;;;6.30;83.50;;;;;;4963845;28;20093;-66
2023/04/15 05:22:00;;;;;;;0.00;0.00;;;6.40;83.70;;;;;;4969240;28;20045;-66
2023/04/15 05:24:26;;;;;;;0.10;0.10;;;6.30;84.10;;;;;;4960690;28;20059;-66
2023/04/15 05:26:51;;;;;;;0.10;0.10;;;6.30;84.60;;;;;;4957929;28;20066;-66
2023/04/15 05:29:17;;;;;;;0.22;0.22;;;6.30;84.90;;;;;;4961581;28;20046;-66
2023/04/15 05:31:43;;;;;;;0.10;0.10;;;6.40;85.10;;;;;;4963490;28;20086;-66
2023/04/15 05:34:09;;;;;;;1.10;1.10;;;6.30;85.30;;;;;;4947089;28;20059;-66
2023/04/15 05:36:34;;;;;;;0.00;0.00;;;6.40;84.70;;;;;;4970098;28;20054;-66
2023/04/15 05:39:00;;;;;;;0.10;0.10;;;6.40;85.00;;;;;;4936678;28;20050;-66
2023/04/15 05:41:26;;;;;;;2.08;1.27;;;6.40;85.10;;;;;;4963257;28;20051;-66
2023/04/15 05:43:51;;;;;;;0.10;0.10;;;6.40;85.20;;;;;;4965577;28;20570;-67
2023/04/15 05:46:17;;;;;;;0.10;0.10;;;6.40;85.90;;;;;;4964001;28;20046;-67
2023/04/15 05:48:42;;;;;;;0.00;0.00;;;6.40;86.00;;;;;;4965706;28;20495;-67
2023/04/15 05:51:08;;;;;;;0.10;0.10;;;6.50;86.10;;;;;;4963711;28;20155;-67
2023/04/15 05:53:34;;;;;;;0.10;0.10;;;6.50;85.80;;;;;;4952746;28;20058;-67
2023/04/15 05:56:00;;;;;;;0.10;0.10;;;6.60;85.90;;;;;;4934877;28;20055;-67
2023/04/15 05:58:25;;;;;;;0.10;0.10;;;6.60;86.30;;;;;;4955572;28;20779;-67
2023/04/15 06:00:51;;;;;;;0.28;0.28;;;6.70;85.70;;;;;;4959332;28;20075;-67
2023/04/15 06:03:17;;;;;;;0.40;0.40;;;6.80;85.60;;;;;;4956472;28;20063;-67
2023/04/15 06:05:43;;;;;;;0.00;0.00;;;6.80;86.10;;;;;;4961075;28;20045;-67
2023/04/15 06:08:10;;;;;;;0.00;0.00;;;6.90;86.00;;;;;;4959140;28;20116;-67
2023/04/15 06:10:36;;;;;;;0.00;0.00;;;7.00;85.70;;;;;;4967112;28;20757;-67
2023/04/15 06:13:02;;;;;;;0.00;0.00;;;7.10;85.80;;;;;;4958546;28;20075;-67
2023/04/15 06:15:28;;;;;;;0.00;0.00;;;7.20;85.10;;;;;;4957201;28;20066;-67
2023/04/15 06:17:54;;;;;;;0.10;0.10;;;7.30;85.20;;;;;;4952549;28;20497;-67
2023/04/15 06:20:19;;;;;;;0.00;0.00;;;7.30;85.30;;;;;;4953022;28;20043;-67
2023/04/15 06:22:45;;;;;;;0.00;0.00;;;7.40;84.80;;;;;;4961953;28;20681;-67
2023/04/15 06:25:11;;;;;;;0.00;0.00;;;7.50;84.10;;;;;;4937569;28;20526;-67
2023/04/15 06:27:36;;;;;;;0.00;0.00;;;7.60;84.20;;;;;;4959044;28;20078;-67
2023/04/15 06:30:02;;;;;;;0.00;0.00;;;7.60;84.40;;;;;;4961105;28;20103;-67
2023/04/15 06:32:28;;;;;;;0.10;0.10;;;7.70;84.90;;;;;;4921171;28;20171;-68
2023/04/15 06:34:54;;;;;;;5.45;0.95;;;7.90;84.10;;;;;;4959683;28;20133;-66
2023/04/15 06:37:19;;;;;;;0.10;0.10;;;7.90;84.50;;;;;;4949077;28;20059;-67
2023/04/15 06:39:45;;;;;;;0.00;0.00;;;8.00;84.70;;;;;;4947666;28;20038;-67
2023/04/15 06:42:11;;;;;;;0.50;0.50;;;8.00;84.70;;;;;;4940958;28;20059;-67
2023/04/15 06:44:37;;;;;;;0.03;0.03;;;8.10;84.10;;;;;;4969843;28;20038;-67
2023/04/15 06:47:02;;;;;;;1.55;0.65;;;8.20;85.10;;;;;;4949338;28;20055;-68
2023/04/15 06:49:28;;;;;;;0.32;0.32;;;8.20;85.80;;;;;;4963611;28;20046;-68
2023/04/15 06:51:54;;;;;;;0.10;0.10;;;8.30;85.70;;;;;;4953931;28;20043;-68
2023/04/15 06:54:20;;;;;;;0.00;0.00;;;8.40;85.30;;;;;;4964731;28;20070;-67
2023/04/15 06:56:46;;;;;;;0.10;0.10;;;8.40;85.50;;;;;;4970125;28;20053;-68
2023/04/15 06:59:11;;;;;;;0.00;0.00;;;8.50;85.20;;;;;;4956972;28;20087;-68
2023/04/15 07:01:37;;;;;;;0.00;0.00;;;8.50;85.00;;;;;;4958266;28;20098;-68
2023/04/15 07:04:03;;;;;;;0.00;0.00;;;8.60;85.10;;;;;;4932947;29;20050;-68
2023/04/15 07:06:28;;;;;;;0.00;0.00;;;8.60;85.10;;;;;;4967790;28;20482;-67
2023/04/15 07:08:54;;;;;;;0.13;0.13;;;8.60;85.10;;;;;;4959863;28;20526;-67
2023/04/15 07:11:20;;;;;;;0.00;0.00;;;8.80;84.80;;;;;;4954789;28;20047;-66
2023/04/15 07:13:45;;;;;;;0.43;0.43;;;8.80;84.40;;;;;;4919402;29;20472;-67
2023/04/15 07:16:11;;;;;;;0.00;0.00;;;8.80;84.30;;;;;;4950717;28;20407;-67
2023/04/15 07:18:37;;;;;;;0.00;0.00;;;9.00;84.20;;;;;;4960233;28;20063;-67
2023/04/15 07:21:02;;;;;;;0.00;0.00;;;9.00;84.00;;;;;;4951250;28;20035;-67
2023/04/15 07:23:28;;;;;;;0.10;0.10;;;9.10;83.90;;;;;;4944839;28;20121;-67
2023/04/15 07:25:53;;;;;;;0.00;0.00;;;9.10;84.10;;;;;;4965969;28;20041;-67
2023/04/15 07:28:19;;;;;;;0.80;0.80;;;9.10;84.10;;;;;;4942352;28;21070;-67
2023/04/15 07:30:45;;;;;;;0.30;0.30;;;9.30;83.70;;;;;;4961072;28;20047;-67
2023/04/15 07:33:11;;;;;;;0.00;0.00;;;9.40;83.60;;;;;;4959838;28;20050;-67
2023/04/15 07:35:36;;;;;;;0.00;0.00;;;9.40;83.30;;;;;;4933617;28;20044;-67
2023/04/15 07:38:02;;;;;;;0.10;0.10;;;9.70;82.40;;;;;;4959102;28;20201;-66
2023/04/15 07:40:28;;;;;;;0.00;0.00;;;9.70;81.80;;;;;;4956785;28;20053;-67
2023/04/15 07:42:56;;;;;;;0.00;0.00;;;9.80;81.20;;;;;;4954272;28;20055;-67
2023/04/15 07:45:21;;;;;;;0.00;0.00;;;9.90;80.20;;;;;;4964434;28;20043;-66
2023/04/15 07:47:47;;;;;;;0.05;0.05;;;10.10;79.20;;;;;;4969108;28;20055;-66
2023/04/15 07:50:13;;;;;;;0.10;0.10;;;10.10;78.30;;;;;;4960704;28;20122;-66
2023/04/15 07:52:39;;;;;;;0.00;0.00;;;10.10;77.90;;;;;;4951075;28;20054;-70
2023/04/15 07:55:07;;;;;;;1.45;0.75;;;10.20;77.00;;;;;;4967151;28;21070;-70
2023/04/15 07:57:35;;;;;;;0.00;0.00;;;10.20;76.20;;;;;;4938276;28;20058;-66
2023/04/15 08:00:04;;;;;;;0.00;0.00;;;10.10;76.90;;;;;;4967832;28;20511;-67
2023/04/15 08:02:30;;;;;;;2.33;0.47;;;10.20;76.80;;;;;;4964529;28;20103;-67
2023/04/15 08:04:56;;;;;;;0.40;0.40;;;10.30;76.40;;;;;;4965388;28;20507;-67
2023/04/15 08:07:22;;;;;;;0.00;0.00;;;10.30;76.50;;;;;;4961202;28;20434;-67
2023/04/15 08:09:48;;;;;;;0.15;0.15;;;10.30;76.10;;;;;;4961519;28;20054;-67
2023/04/15 08:12:13;;;;;;;0.00;0.00;;;10.30;75.70;;;;;;4959633;28;20043;-67
2023/04/15 08:14:39;;;;;;;0.47;0.30;;;10.40;75.90;;;;;;4960135;28;20047;-67
2023/04/15 08:17:05;;;;;;;0.10;0.10;;;10.30;75.70;;;;;;4966609;28;20058;-67
2023/04/15 08:19:31;;;;;;;0.10;0.10;;;10.30;76.00;;;;;;4969384;28;20050;-68
2023/04/15 08:21:56;;;;;;;0.00;0.00;;;10.30;76.40;;;;;;4966781;28;20031;-66
2023/04/15 08:24:25;;;;;;;0.00;0.00;;;10.40;75.80;;;;;;4971344;28;20200;-67
2023/04/15 08:26:51;;;;;;;0.00;0.00;;;10.40;75.60;;;;;;4964290;28;20043;-67
2023/04/15 08:29:16;;;;;;;0.10;0.10;;;10.40;75.70;;;;;;4965580;28;20085;-67
2023/04/15 08:31:42;;;;;;;0.00;0.00;;;10.30;76.10;;;;;;4968297;28;20091;-67
2023/04/15 08:34:08;;;;;;;0.05;0.05;;;10.40;76.00;;;;;;4955285;28;20061;-68
2023/04/15 08:36:34;;;;;;;0.00;0.00;;;10.50;75.60;;;;;;4969730;28;20049;-68
2023/04/15 08:39:03;;;;;;;0.00;0.00;;;10.40;74.50;;;;;;4962865;28;20078;-67
2023/04/15 08:41:38;;;;;;;0.20;0.20;;;10.40;73.80;;;;;;4955034;28;20051;-67
2023/04/15 08:44:04;;;;;;;0.10;0.10;;;10.50;74.20;;;;;;4962317;28;20071;-67
2023/04/15 08:46:33;;;;;;;0.00;0.00;;;10.50;74.60;;;;;;4970380;28;20058;-67
2023/04/15 08:49:02;;;;;;;0.00;0.00;;;10.50;74.40;;;;;;4971595;28;20058;-67
2023/04/15 08:51:28;;;;;;;0.10;0.10;;;10.70;73.80;;;;;;4951525;28;20147;-67
2023/04/15 08:53:54;;;;;;;0.00;0.00;;;10.70;74.10;;;;;;4970385;28;20133;-66
2023/04/15 08:56:24;;;;;;;0.08;0.08;;;10.70;74.00;;;;;;4968421;28;20050;-66
2023/04/15 08:58:50;;;;;;;0.00;0.00;;;10.70;74.50;;;;;;4956168;28;20758;-67
2023/04/15 09:01:16;;;;;;;0.00;0.00;;;10.80;74.20;;;;;;4948565;28;20035;-68
2023/04/15 09:03:42;;;;;;;0.00;0.00;;;10.60;74.80;;;;;;4950340;28;20124;-69
2023/04/15 09:06:08;;;;;;;1.60;0.40;;;10.60;75.30;;;;;;4965860;28;20074;-66
2023/04/15 09:08:34;;;;;;;0.00;0.00;;;10.30;76.00;;;;;;4945136;28;20091;-67
2023/04/15 09:11:01;;;;;;;0.00;0.00;;;10.40;76.10;;;;;;4952250;28;20066;-67
2023/04/15 09:13:28;;;;;;;0.00;0.00;;;10.40;75.70;;;;;;4960749;28;20435;-66
2023/04/15 09:15:54;;;;;;;0.00;0.00;;;10.40;75.40;;;;;;4960891;28;20051;-65
2023/04/15 09:18:28;;;;;;;0.00;0.00;;;10.40;75.30;;;;;;4964761;28;20557;-65
2023/04/15 09:20:54;;;;;;;0.00;0.00;;;10.40;75.40;;;;;;4961472;28;20043;-66
2023/04/15 09:23:19;;;;;;;0.00;0.00;;;10.50;74.70;;;;;;4941907;28;20178;-66
2023/04/15 09:25:45;;;;;;;0.10;0.10;;;10.60;74.30;;;;;;4959465;28;20071;-66
2023/04/15 09:28:11;;;;;;;0.10;0.10;;;10.50;74.40;;;;;;4959264;28;20070;-66
2023/04/15 09:30:36;;;;;;;0.00;0.00;;;10.40;74.40;;;;;;4963508;28;20053;-67
2023/04/15 09:33:07;;;;;;;0.13;0.13;;;10.30;74.50;;;;;;4958042;28;20045;-67
2023/04/15 09:35:36;;;;;;;0.10;0.10;;;10.30;74.60;;;;;;4961396;28;20122;-66
2023/04/15 09:38:08;;;;;;;0.00;0.00;;;10.30;74.50;;;;;;4967700;28;20153;-67
2023/04/15 09:40:40;;;;;;;0.00;0.00;;;10.30;74.30;;;;;;4954958;28;20051;-66
2023/04/15 09:43:06;;;;;;;0.00;0.00;;;10.40;74.70;;;;;;4961141;28;20073;-67
2023/04/15 09:45:33;;;;;;;3.17;1.50;;;10.40;74.70;;;;;;4967606;28;20334;-66
2023/04/15 09:48:13;;;;;;;0.00;0.00;;;10.40;74.60;;;;;;4965497;28;20043;-67
2023/04/15 09:50:41;;;;;;;0.00;0.00;;;10.40;74.90;;;;;;4964244;28;20051;-68
2023/04/15 09:53:15;;;;;;;0.00;0.00;;;10.40;74.60;;;;;;4953418;28;20039;-66
2023/04/15 09:55:53;;;;;;;0.10;0.10;;;10.50;74.40;;;;;;4966424;28;20121;-67
2023/04/15 09:58:26;;;;;;;0.00;0.00;;;10.40;74.40;;;;;;4962677;28;20492;-66
2023/04/15 10:00:54;;;;;;;0.00;0.00;;;10.50;74.10;;;;;;4962603;28;20051;-67
2023/04/15 10:03:27;;;;;;;0.60;0.55;;;10.40;74.50;;;;;;4966129;28;20066;-67
2023/04/15 10:05:57;;;;;;;0.00;0.00;;;10.50;74.30;;;;;;4964142;28;20051;-67
2023/04/15 10:08:24;;;;;;;0.00;0.00;;;10.70;73.70;;;;;;4958202;28;20123;-66
2023/04/15 10:10:51;;;;;;;0.00;0.00;;;10.90;73.00;;;;;;4955485;28;20047;-66
2023/04/15 10:13:27;;;;;;;0.00;0.00;;;10.90;73.10;;;;;;4964513;28;20792;-67
2023/04/15 10:16:06;;;;;;;0.00;0.00;;;11.10;71.70;;;;;;4965316;28;20093;-67
2023/04/15 10:18:35;;;;;;;0.00;0.00;;;11.10;71.10;;;;;;4963653;28;20047;-66
2023/04/15 10:21:01;;;;;;;0.00;0.00;;;10.90;70.90;;;;;;4964069;28;20065;-68
2023/04/15 10:23:27;;;;;;;0.00;0.00;;;11.00;71.30;;;;;;4960830;28;20043;-66
2023/04/15 10:25:55;;;;;;;0.10;0.10;;;11.00;71.90;;;;;;4961644;28;20042;-67
2023/04/15 10:28:21;;;;;;;0.00;0.00;;;11.00;72.10;;;;;;4967878;28;20043;-67
2023/04/15 10:30:48;;;;;;;0.00;0.00;;;11.10;71.80;;;;;;4964878;28;20546;-67
2023/04/15 10:33:16;;;;;;;0.10;0.10;;;11.10;71.40;;;;;;4964440;28;20206;-67
2023/04/15 10:35:42;;;;;;;0.00;0.00;;;11.00;71.60;;;;;;4963852;28;20092;-68
2023/04/15 10:38:34;;;;;;;0.00;0.00;;;11.10;71.80;;;;;;4959303;28;20052;-67
2023/04/15 10:41:22;;;;;;;0.00;0.00;;;11.10;71.30;;;;;;4953816;28;20051;-66
2023/04/15 10:44:04;;;;;;;0.00;0.00;;;11.10;71.90;;;;;;4948035;28;20142;-67
2023/04/15 10:46:36;;;;;;;0.00;0.00;;;11.10;70.90;;;;;;4946387;28;20097;-66
2023/04/15 10:49:10;;;;;;;0.00;0.00;;;11.10;70.90;;;;;;4961058;28;20053;-67
2023/04/15 10:51:45;;;;;;;0.00;0.00;;;11.10;70.20;;;;;;4967902;28;20046;-67
2023/04/15 10:54:26;;;;;;;0.00;0.00;;;11.00;71.10;;;;;;4971066;28;20050;-67
2023/04/15 10:57:05;;;;;;;0.00;0.00;;;11.20;71.20;;;;;;4969468;28;20049;-67
2023/04/15 10:59:58;;;;;;;0.00;0.00;;;11.20;70.30;;;;;;4952358;28;20146;-67
2023/04/15 11:02:47;;;;;;;0.00;0.00;;;11.20;70.60;;;;;;4970388;28;20110;-67
2023/04/15 11:05:14;;;;;;;0.00;0.00;;;11.10;71.00;;;;;;4970351;28;20054;-67
2023/04/15 11:07:47;;;;;;;0.00;0.00;;;11.10;70.40;;;;;;4970026;28;20059;-66
2023/04/15 11:10:13;;;;;;;0.00;0.00;;;10.90;71.90;;;;;;4957047;28;20047;-68
2023/04/15 11:12:39;;;;;;;0.00;0.00;;;10.90;72.10;;;;;;4966447;28;20061;-67
2023/04/15 11:15:30;;;;;;;0.00;0.00;;;10.90;72.40;;;;;;4958976;28;20411;-66
2023/04/15 11:17:57;;;;;;;0.00;0.00;;;10.90;72.20;;;;;;4957777;28;20047;-67
2023/04/15 11:20:24;;;;;;;0.13;0.13;;;10.90;71.80;;;;;;4968964;28;20046;-66
2023/04/15 11:22:50;;;;;;;0.00;0.00;;;10.80;71.70;;;;;;4947067;29;20063;-67
2023/04/15 11:25:29;;;;;;;0.00;0.00;;;10.70;72.00;;;;;;4918509;28;20050;-68
2023/04/15 11:27:56;;;;;;;0.00;0.00;;;10.60;72.00;;;;;;4951451;28;20525;-67
2023/04/15 11:30:24;;;;;;;0.00;0.00;;;10.70;71.80;;;;;;4962638;28;20045;-67
2023/04/15 11:32:51;;;;;;;0.00;0.00;;;10.60;72.50;;;;;;4936606;28;20158;-67
2023/04/15 11:35:17;;;;;;;0.90;0.55;;;10.70;72.10;;;;;;4952288;28;20106;-67
2023/04/15 11:37:49;;;;;;;0.00;0.00;;;10.70;72.50;;;;;;4957929;28;20055;-67
2023/04/15 11:40:16;;;;;;;0.00;0.00;;;10.80;71.80;;;;;;4941014;28;20110;-67
2023/04/15 11:42:48;;;;;;;0.00;0.00;;;10.80;71.50;;;;;;4957044;28;20055;-67
2023/04/15 11:45:14;;;;;;;0.00;0.00;;;10.80;71.90;;;;;;4964421;28;20042;-67
2023/04/15 11:47:41;;;;;;;0.00;0.00;;;10.70;72.30;;;;;;4966886;28;20054;-67
2023/04/15 11:50:18;;;;;;;0.00;0.00;;;10.60;72.90;;;;;;4969624;28;20125;-67
2023/04/15 11:52:54;;;;;;;0.00;0.00;;;10.60;73.10;;;;;;4972288;28;20419;-67
2023/04/15 11:55:19;;;;;;;0.00;0.00;;;10.50;73.00;;;;;;4973829;28;20571;-67
2023/04/15 11:57:45;;;;;;;0.30;0.30;;;10.50;73.60;;;;;;4979859;28;20047;-67
2023/04/15 12:00:11;;;;;;;0.00;0.00;;;10.40;74.00;;;;;;4959478;28;20538;-68
2023/04/15 12:02:38;;;;;;;0.00;0.00;;;10.40;73.70;;;;;;4971923;28;20054;-67
2023/04/15 12:05:05;;;;;;;0.00;0.00;;;10.40;73.80;;;;;;4972355;28;20078;-67
2023/04/15 12:07:31;;;;;;;0.00;0.00;;;10.30;73.90;;;;;;4989312;28;20492;-67
2023/04/15 12:09:57;;;;;;;0.00;0.00;;;10.40;73.70;;;;;;4973782;28;20053;-67
2023/04/15 12:12:29;;;;;;;0.00;0.00;;;10.40;73.10;;;;;;4958756;28;20042;-67
2023/04/15 12:14:58;;;;;;;0.30;0.30;;;10.40;73.30;;;;;;4969351;28;20034;-66
2023/04/15 12:17:25;;;;;;;0.17;0.17;;;10.40;73.30;;;;;;4959148;28;20047;-67
2023/04/15 12:19:55;;;;;;;0.00;0.00;;;10.40;73.20;;;;;;4957530;28;20456;-67
2023/04/15 12:22:21;;;;;;;0.00;0.00;;;10.50;73.00;;;;;;4965393;28;20040;-66
2023/04/15 12:24:47;;;;;;;0.00;0.00;;;10.50;73.40;;;;;;4973581;28;20050;-67
2023/04/15 12:27:16;;;;;;;0.00;0.00;;;10.40;73.60;;;;;;4954988;28;20504;-67
2023/04/15 12:29:42;;;;;;;0.00;0.00;;;10.40;73.70;;;;;;4954432;28;20408;-67
2023/04/15 12:32:13;;;;;;;0.00;0.00;;;10.30;74.10;;;;;;4954371;28;20389;-68
2023/04/15 12:34:40;;;;;;;0.00;0.00;;;10.30;74.60;;;;;;4957386;28;20043;-66
2023/04/15 12:37:08;;;;;;;0.00;0.00;;;10.30;74.90;;;;;;4965108;28;20047;-66
2023/04/15 12:39:36;;;;;;;0.57;0.57;;;10.20;75.50;;;;;;4968026;28;20035;-66
2023/04/15 12:42:03;;;;;;;0.05;0.05;;;10.10;75.60;;;;;;4949120;28;20074;-67
2023/04/15 12:44:28;;;;;;;3.03;1.65;;;10.00;75.70;;;;;;4966020;28;20034;-66
2023/04/15 12:46:54;;;;;;;0.00;0.00;;;9.90;75.60;;;;;;4966765;28;20046;-67
2023/04/15 12:49:21;;;;;;;0.00;0.00;;;9.90;75.60;;;;;;4958828;28;20073;-66
2023/04/15 12:51:52;;;;;;;0.00;0.00;;;9.90;75.80;;;;;;4966176;28;20039;-66